Time;durP1;ratioP1;P1;durP2;ratioP2;P2;SDS_P1;SDS_P2;PMS_P1;PMS_P2;Temp;Humidity;BMP_temperature;BMP_pressure;BME280_temperature;BME280_humidity;BME280_pressure;Samples;Min_cycle;Max_cycle;Signal;HPM_P1;HPM_P2
2023/03/10 00:00:42;;;;;;;;;;;9.90;99.90;;;;;;5028608;28;20370;-63
2023/03/10 00:03:08;;;;;;;;;;;9.90;99.90;;;;;;5029225;28;19953;-63
2023/03/10 00:05:33;;;;;;;;;;;9.90;99.90;;;;;;5026207;28;20012;-62
2023/03/10 00:07:59;;;;;;;;;;;9.90;99.90;;;;;;5030043;28;19913;-62
2023/03/10 00:10:25;;;;;;;;;;;9.90;99.90;;;;;;5029119;28;19920;-63
2023/03/10 00:12:50;;;;;;;;;;;9.80;99.90;;;;;;5029030;28;19913;-63
2023/03/10 00:15:16;;;;;;;;;;;9.80;99.90;;;;;;5029479;28;20407;-62
2023/03/10 00:17:41;;;;;;;;;;;9.80;99.90;;;;;;5028467;28;19917;-64
2023/03/10 00:20:10;;;;;;;;;;;9.80;99.90;;;;;;5030083;28;19913;-63
2023/03/10 00:22:40;;;;;;;;;;;9.80;99.90;;;;;;5027341;28;19920;-64
2023/03/10 00:25:06;;;;;;;;;;;9.80;99.90;;;;;;5029881;28;19944;-62
2023/03/10 00:27:32;;;;;;;;;;;9.90;99.90;;;;;;5027880;28;19917;-62
2023/03/10 00:29:58;;;;;;;;;;;9.80;99.90;;;;;;5030041;28;19920;-63
2023/03/10 00:32:23;;;;;;;;;;;9.90;99.90;;;;;;5030883;28;19920;-63
2023/03/10 00:34:49;;;;;;;;;;;9.90;99.90;;;;;;5027503;28;19921;-63
2023/03/10 00:37:14;;;;;;;;;;;9.90;99.90;;;;;;5029802;28;20011;-65
2023/03/10 00:39:40;;;;;;;;;;;9.80;99.90;;;;;;5027878;28;19913;-65
2023/03/10 00:42:06;;;;;;;;;;;9.90;99.90;;;;;;5029754;28;19967;-64
2023/03/10 00:44:50;;;;;;;;;;;9.90;99.90;;;;;;4309778;28;19929;-64
2023/03/10 00:47:16;;;;;;;;;;;9.80;99.90;;;;;;5024514;28;19913;-65
2023/03/10 00:49:42;;;;;;;;;;;9.80;99.90;;;;;;5027009;28;20016;-66
2023/03/10 00:52:07;;;;;;;;;;;9.80;99.90;;;;;;5029304;28;20327;-66
2023/03/10 00:54:33;;;;;;;;;;;9.80;99.90;;;;;;5028114;28;19920;-65
2023/03/10 00:56:58;;;;;;;;;;;9.80;99.90;;;;;;5025414;28;19920;-67
2023/03/10 00:59:24;;;;;;;;;;;9.70;99.90;;;;;;5029054;28;19913;-65
2023/03/10 01:01:49;;;;;;;;;;;9.80;99.90;;;;;;5027054;28;19971;-65
2023/03/10 01:04:17;;;;;;;;;;;9.80;99.90;;;;;;5029604;28;19935;-65
2023/03/10 01:06:44;;;;;;;;;;;9.70;99.90;;;;;;5027136;28;19921;-65
2023/03/10 01:09:09;;;;;;;;;;;9.70;99.90;;;;;;5028907;28;19913;-66
2023/03/10 01:11:35;;;;;;;;;;;9.70;99.90;;;;;;5027361;28;19913;-67
2023/03/10 01:14:02;;;;;;;;;;;9.70;99.90;;;;;;5029913;28;19920;-68
2023/03/10 01:16:28;;;;;;;;;;;9.70;99.90;;;;;;5028363;28;19913;-67
2023/03/10 01:18:57;;;;;;;;;;;9.70;99.90;;;;;;5033013;28;19920;-68
2023/03/10 01:21:25;;;;;;;;;;;9.60;99.90;;;;;;5033243;28;19959;-68
2023/03/10 01:23:51;;;;;;;;;;;9.60;99.90;;;;;;5033381;28;19920;-69
2023/03/10 01:26:17;;;;;;;;;;;9.60;99.90;;;;;;5033072;28;19913;-68
2023/03/10 01:34:54;;;;;;;;;;;9.60;99.90;;;;;;5031015;28;20388;-64
2023/03/10 01:37:20;;;;;;;;;;;9.60;99.90;;;;;;5031885;28;19949;-66
2023/03/10 01:39:45;;;;;;;;;;;9.50;99.90;;;;;;5029544;28;19920;-65
2023/03/10 01:42:11;;;;;;;;;;;9.60;99.90;;;;;;5032424;28;20379;-64
2023/03/10 01:44:38;;;;;;;;;;;9.60;99.90;;;;;;5030601;28;19920;-64
2023/03/10 01:47:03;;;;;;;;;;;9.60;99.90;;;;;;5032663;28;19914;-64
2023/03/10 01:49:29;;;;;;;;;;;9.60;99.90;;;;;;5031723;28;19917;-64
2023/03/10 01:52:04;;;;;;;;;;;9.60;99.90;;;;;;5031012;28;19919;-64
2023/03/10 01:54:37;;;;;;;;;;;9.70;99.90;;;;;;5032161;28;20426;-63
2023/03/10 01:57:05;;;;;;;;;;;9.70;99.90;;;;;;5032128;28;19913;-64
2023/03/10 01:59:31;;;;;;;;;;;9.60;99.90;;;;;;5030141;28;20397;-63
2023/03/10 02:01:57;;;;;;;;;;;9.60;99.90;;;;;;5032385;28;19917;-63
2023/03/10 02:04:32;;;;;;;;;;;9.60;99.90;;;;;;5032016;28;20020;-62
2023/03/10 02:06:58;;;;;;;;;;;9.60;99.90;;;;;;5021828;28;19917;-62
2023/03/10 02:09:24;;;;;;;;;;;9.60;99.90;;;;;;5031103;28;20284;-62
2023/03/10 02:11:50;;;;;;;;;;;9.70;99.90;;;;;;5027223;28;20274;-62
2023/03/10 02:14:16;;;;;;;;;;;9.60;99.90;;;;;;5032165;28;20388;-63
2023/03/10 02:16:42;;;;;;;;;;;9.70;99.90;;;;;;5030194;28;19917;-63
2023/03/10 02:19:10;;;;;;;;;;;9.60;99.90;;;;;;5031076;28;19920;-63
2023/03/10 02:21:39;;;;;;;;;;;9.70;99.90;;;;;;5030119;28;19920;-64
2023/03/10 02:24:04;;;;;;;;;;;9.60;99.90;;;;;;5031819;28;19928;-64
2023/03/10 02:26:48;;;;;;;;;;;9.60;99.90;;;;;;5031406;28;20347;-64
2023/03/10 02:29:17;;;;;;;;;;;9.60;99.90;;;;;;5030093;28;19921;-63
2023/03/10 02:31:43;;;;;;;;;;;9.60;99.90;;;;;;5028950;28;20060;-63
2023/03/10 02:34:09;;;;;;;;;;;9.60;99.90;;;;;;5031864;28;19913;-64
2023/03/10 02:36:34;;;;;;;;;;;9.60;99.90;;;;;;5029680;28;19920;-65
2023/03/10 02:39:00;;;;;;;;;;;9.70;99.90;;;;;;5031668;28;19913;-67
2023/03/10 02:41:28;;;;;;;;;;;9.70;99.90;;;;;;5029412;28;19940;-66
2023/03/10 02:43:55;;;;;;;;;;;9.70;99.90;;;;;;5029558;28;19921;-65
2023/03/10 02:46:21;;;;;;;;;;;9.60;99.90;;;;;;5031334;28;19917;-65
2023/03/10 02:48:47;;;;;;;;;;;9.70;99.90;;;;;;5029539;28;19919;-64
2023/03/10 02:51:18;;;;;;;;;;;9.70;99.90;;;;;;5029865;28;19917;-65
2023/03/10 02:53:43;;;;;;;;;;;9.70;99.90;;;;;;5029546;28;20364;-64
2023/03/10 02:56:09;;;;;;;;;;;9.80;99.90;;;;;;5031014;28;19914;-63
2023/03/10 02:58:35;;;;;;;;;;;9.70;99.90;;;;;;5029647;28;19939;-64
2023/03/10 03:01:01;;;;;;;;;;;9.70;99.90;;;;;;5029515;28;19914;-63
2023/03/10 03:03:26;;;;;;;;;;;9.80;99.90;;;;;;5031198;28;19920;-64
2023/03/10 03:05:52;;;;;;;;;;;9.80;99.90;;;;;;5029497;28;19956;-63
2023/03/10 03:08:18;;;;;;;;;;;9.80;99.90;;;;;;5031094;28;20426;-64
2023/03/10 03:10:44;;;;;;;;;;;9.80;99.90;;;;;;5028057;28;19913;-62
2023/03/10 03:13:09;;;;;;;;;;;9.80;99.90;;;;;;5029809;28;19910;-63
2023/03/10 03:15:35;;;;;;;;;;;9.80;99.90;;;;;;5028926;28;19967;-63
2023/03/10 03:18:01;;;;;;;;;;;9.80;99.90;;;;;;5031065;28;20341;-64
2023/03/10 03:20:28;;;;;;;;;;;9.80;99.90;;;;;;5030349;28;20020;-63
2023/03/10 03:22:53;;;;;;;;;;;9.70;99.90;;;;;;5029156;28;20317;-64
2023/03/10 03:25:20;;;;;;;;;;;9.70;99.90;;;;;;5030108;28;19963;-63
2023/03/10 03:27:45;;;;;;;;;;;9.70;99.90;;;;;;5028706;28;19913;-64
2023/03/10 03:30:13;;;;;;;;;;;9.80;99.90;;;;;;5029630;28;19920;-63
2023/03/10 03:32:39;;;;;;;;;;;9.60;99.90;;;;;;5027847;28;19919;-63
2023/03/10 03:35:08;;;;;;;;;;;9.60;99.90;;;;;;5030658;28;20004;-62
2023/03/10 03:37:33;;;;;;;;;;;9.70;99.90;;;;;;5028805;28;19913;-63
2023/03/10 03:39:59;;;;;;;;;;;9.60;99.90;;;;;;5029864;28;20261;-62
2023/03/10 03:42:24;;;;;;;;;;;9.60;99.90;;;;;;5029943;28;20437;-63
2023/03/10 03:44:50;;;;;;;;;;;9.60;99.90;;;;;;5026761;28;20924;-62
2023/03/10 03:47:15;;;;;;;;;;;9.60;99.90;;;;;;5029629;28;19935;-62
2023/03/10 03:49:41;;;;;;;;;;;9.60;99.90;;;;;;5028687;28;19920;-62
2023/03/10 03:52:07;;;;;;;;;;;9.60;99.90;;;;;;5030418;28;19913;-62
2023/03/10 03:54:32;;;;;;;;;;;9.50;99.90;;;;;;5028330;28;19975;-61
2023/03/10 03:56:58;;;;;;;;;;;9.50;99.90;;;;;;5029054;28;20010;-61
2023/03/10 03:59:24;;;;;;;;;;;9.60;99.90;;;;;;5038178;28;20012;-61
2023/03/10 04:01:49;;;;;;;;;;;9.60;99.90;;;;;;5028582;28;19920;-61
2023/03/10 04:04:15;;;;;;;;;;;9.50;99.90;;;;;;5029964;28;19921;-62
2023/03/10 04:06:41;;;;;;;;;;;9.60;99.90;;;;;;5027631;28;19913;-61
2023/03/10 04:09:07;;;;;;;;;;;9.50;99.90;;;;;;5028904;28;19919;-61
2023/03/10 04:11:32;;;;;;;;;;;9.50;99.90;;;;;;5027637;28;20007;-62
2023/03/10 04:13:58;;;;;;;;;;;9.60;99.90;;;;;;5030117;28;19913;-62
2023/03/10 04:16:23;;;;;;;;;;;9.60;99.90;;;;;;5029974;28;19913;-62
2023/03/10 04:18:49;;;;;;;;;;;9.60;99.90;;;;;;5026865;28;19913;-61
2023/03/10 04:21:16;;;;;;;;;;;9.60;99.90;;;;;;5029679;28;20280;-61
2023/03/10 04:23:42;;;;;;;;;;;9.70;99.90;;;;;;5028100;28;20349;-61
2023/03/10 04:26:08;;;;;;;;;;;9.60;99.90;;;;;;5029403;28;19921;-61
2023/03/10 04:28:34;;;;;;;;;;;9.60;99.90;;;;;;5027187;28;19913;-62
2023/03/10 04:31:00;;;;;;;;;;;9.60;99.90;;;;;;5029948;28;19966;-62
2023/03/10 04:33:25;;;;;;;;;;;9.60;99.90;;;;;;5028818;28;19958;-62
2023/03/10 04:35:52;;;;;;;;;;;9.60;99.90;;;;;;5028200;28;19999;-62
2023/03/10 04:38:18;;;;;;;;;;;9.60;99.90;;;;;;5029742;28;19920;-62
2023/03/10 04:40:43;;;;;;;;;;;9.60;99.90;;;;;;5027947;28;19913;-63
2023/03/10 04:43:09;;;;;;;;;;;9.60;99.90;;;;;;5028810;28;19919;-61
2023/03/10 04:45:35;;;;;;;;;;;9.70;99.90;;;;;;5027688;28;19979;-62
2023/03/10 04:48:01;;;;;;;;;;;9.60;99.90;;;;;;5029917;28;20284;-61
2023/03/10 04:50:26;;;;;;;;;;;9.60;99.90;;;;;;5029462;28;20412;-61
2023/03/10 04:52:52;;;;;;;;;;;9.60;99.90;;;;;;5031161;28;19913;-61
2023/03/10 04:55:18;;;;;;;;;;;9.70;99.90;;;;;;5033487;28;20360;-61
2023/03/10 04:57:43;;;;;;;;;;;9.70;99.90;;;;;;5031061;28;20420;-62
2023/03/10 05:00:11;;;;;;;;;;;9.80;99.90;;;;;;5032198;28;20004;-61
2023/03/10 05:02:37;;;;;;;;;;;9.70;99.90;;;;;;5030069;28;20012;-62
2023/03/10 05:05:03;;;;;;;;;;;9.70;99.90;;;;;;5033134;28;19991;-62
2023/03/10 05:07:29;;;;;;;;;;;9.80;99.90;;;;;;5032934;28;19913;-63
2023/03/10 05:09:54;;;;;;;;;;;9.80;99.90;;;;;;5031795;28;19948;-62
2023/03/10 05:12:20;;;;;;;;;;;9.70;99.90;;;;;;5031646;28;20360;-61
2023/03/10 05:14:45;;;;;;;;;;;9.70;99.90;;;;;;5031602;28;19920;-61
2023/03/10 05:17:11;;;;;;;;;;;9.80;99.90;;;;;;5031757;28;19988;-62
2023/03/10 05:19:37;;;;;;;;;;;9.90;99.90;;;;;;5029750;28;19913;-62
2023/03/10 05:22:03;;;;;;;;;;;9.80;99.90;;;;;;5032291;28;20359;-62
2023/03/10 05:24:29;;;;;;;;;;;9.80;99.90;;;;;;5032754;28;19921;-62
2023/03/10 05:26:55;;;;;;;;;;;9.90;99.90;;;;;;5028132;28;19932;-62
2023/03/10 05:29:20;;;;;;;;;;;9.90;99.90;;;;;;5044807;28;19936;-62
2023/03/10 05:31:46;;;;;;;;;;;9.90;99.90;;;;;;5027863;28;20000;-62
2023/03/10 05:34:13;;;;;;;;;;;9.90;99.90;;;;;;5032603;28;19913;-62
2023/03/10 05:36:39;;;;;;;;;;;9.80;99.90;;;;;;5030798;28;19913;-62
2023/03/10 05:39:05;;;;;;;;;;;9.90;99.90;;;;;;5032887;28;19913;-61
2023/03/10 05:41:31;;;;;;;;;;;9.90;99.90;;;;;;5029972;28;19913;-62
2023/03/10 05:43:57;;;;;;;;;;;9.90;99.90;;;;;;5031695;28;19972;-62
2023/03/10 05:46:23;;;;;;;;;;;9.80;99.90;;;;;;5032657;28;20380;-63
2023/03/10 05:48:48;;;;;;;;;;;9.80;99.90;;;;;;5027920;28;19913;-62
2023/03/10 05:51:14;;;;;;;;;;;9.80;99.90;;;;;;5031744;28;19920;-61
2023/03/10 05:53:40;;;;;;;;;;;9.80;99.90;;;;;;5028890;28;19963;-61
2023/03/10 05:56:10;;;;;;;;;;;9.80;99.90;;;;;;5031718;28;19913;-61
2023/03/10 05:58:36;;;;;;;;;;;9.80;99.90;;;;;;5030446;28;19913;-61
2023/03/10 06:01:02;;;;;;;;;;;9.80;99.90;;;;;;5031613;28;19914;-61
2023/03/10 06:03:28;;;;;;;;;;;9.80;99.90;;;;;;5030313;28;19920;-62
2023/03/10 06:05:55;;;;;;;;;;;9.80;99.90;;;;;;5027443;28;20285;-62
2023/03/10 06:08:22;;;;;;;;;;;9.80;99.90;;;;;;5030526;28;19928;-62
2023/03/10 06:10:47;;;;;;;;;;;9.80;99.90;;;;;;5028842;28;19913;-62
2023/03/10 06:13:13;;;;;;;;;;;9.80;99.90;;;;;;5031972;28;19917;-62
2023/03/10 06:15:39;;;;;;;;;;;9.80;99.90;;;;;;5029059;28;19913;-63
2023/03/10 06:18:05;;;;;;;;;;;9.80;99.90;;;;;;5026373;28;19920;-63
2023/03/10 06:20:30;;;;;;;;;;;9.80;99.90;;;;;;5030304;28;19913;-62
2023/03/10 06:22:56;;;;;;;;;;;9.80;99.90;;;;;;5028471;28;19920;-64
2023/03/10 06:25:21;;;;;;;;;;;9.80;99.90;;;;;;5031371;28;20033;-62
2023/03/10 06:27:47;;;;;;;;;;;9.80;99.90;;;;;;5028862;28;19914;-62
2023/03/10 06:30:13;;;;;;;;;;;9.90;99.90;;;;;;5030957;28;20016;-62
2023/03/10 06:32:39;;;;;;;;;;;9.90;99.90;;;;;;5028415;28;20285;-62
2023/03/10 06:35:05;;;;;;;;;;;9.80;99.90;;;;;;5031482;28;19913;-62
2023/03/10 06:37:31;;;;;;;;;;;9.80;99.90;;;;;;5031475;28;19913;-62
2023/03/10 06:39:56;;;;;;;;;;;9.70;99.90;;;;;;5022225;28;19968;-62
2023/03/10 06:42:22;;;;;;;;;;;9.40;99.90;;;;;;5030890;28;19956;-62
2023/03/10 06:44:48;;;;;;;;;;;9.20;99.90;;;;;;5029614;28;19921;-62
2023/03/10 06:47:14;;;;;;;;;;;9.00;99.90;;;;;;5031291;28;19913;-62
2023/03/10 06:49:39;;;;;;;;;;;8.80;99.90;;;;;;5029909;28;20428;-62
2023/03/10 06:52:05;;;;;;;;;;;8.70;99.90;;;;;;5029898;28;20277;-62
2023/03/10 06:54:30;;;;;;;;;;;8.50;99.90;;;;;;5030996;28;20289;-62
2023/03/10 06:56:56;;;;;;;;;;;8.30;99.90;;;;;;5028701;28;19994;-62
2023/03/10 06:59:22;;;;;;;;;;;8.20;99.90;;;;;;5031218;28;19948;-62
2023/03/10 07:01:47;;;;;;;;;;;7.80;99.90;;;;;;5027709;28;19943;-61
2023/03/10 07:04:13;;;;;;;;;;;7.70;99.90;;;;;;5030674;28;20035;-62
2023/03/10 07:06:38;;;;;;;;;;;7.60;99.90;;;;;;5029138;28;19913;-61
2023/03/10 07:09:04;;;;;;;;;;;7.50;99.90;;;;;;5029614;28;19913;-62
2023/03/10 07:11:30;;;;;;;;;;;7.40;99.90;;;;;;5029133;28;19920;-62
2023/03/10 07:13:55;;;;;;;;;;;7.50;99.90;;;;;;5025460;28;19963;-62
2023/03/10 07:16:21;;;;;;;;;;;7.40;99.90;;;;;;5027925;28;19917;-62
2023/03/10 07:18:47;;;;;;;;;;;7.30;99.90;;;;;;5027841;28;19964;-66
2023/03/10 07:21:18;;;;;;;;;;;7.20;99.90;;;;;;5030081;28;19917;-62
2023/03/10 07:23:44;;;;;;;;;;;7.10;99.90;;;;;;5027274;28;19944;-62
2023/03/10 07:26:11;;;;;;;;;;;7.10;99.90;;;;;;5029792;28;20324;-61
2023/03/10 07:28:37;;;;;;;;;;;7.10;99.90;;;;;;5028433;28;20246;-62
2023/03/10 07:31:04;;;;;;;;;;;6.90;99.90;;;;;;5029498;28;20009;-62
2023/03/10 07:33:29;;;;;;;;;;;6.90;99.90;;;;;;5029766;28;19919;-62
2023/03/10 07:35:55;;;;;;;;;;;6.90;99.90;;;;;;5028210;28;20007;-62
2023/03/10 07:38:21;;;;;;;;;;;6.80;99.90;;;;;;5029211;28;19941;-62
2023/03/10 07:40:46;;;;;;;;;;;6.80;99.90;;;;;;5027837;28;19920;-62
2023/03/10 07:43:12;;;;;;;;;;;6.60;99.90;;;;;;5029962;28;19913;-62
2023/03/10 07:45:37;;;;;;;;;;;6.50;99.90;;;;;;5026457;28;19968;-62
2023/03/10 07:48:03;;;;;;;;;;;6.50;99.90;;;;;;5028673;28;20027;-62
2023/03/10 07:50:29;;;;;;;;;;;6.50;99.90;;;;;;5028228;28;19913;-62
2023/03/10 07:52:55;;;;;;;;;;;6.50;99.90;;;;;;5028009;28;19974;-62
2023/03/10 07:55:20;;;;;;;;;;;6.40;99.90;;;;;;5027536;28;19913;-62
2023/03/10 07:57:46;;;;;;;;;;;6.40;99.90;;;;;;5027377;28;19913;-62
2023/03/10 08:00:12;;;;;;;;;;;6.30;99.90;;;;;;5029529;28;20442;-62
2023/03/10 08:02:37;;;;;;;;;;;6.20;99.90;;;;;;5027795;28;19913;-61
2023/03/10 08:05:03;;;;;;;;;;;6.20;99.90;;;;;;5031949;28;19925;-62
2023/03/10 08:07:29;;;;;;;;;;;6.10;99.90;;;;;;5028733;28;20253;-61
2023/03/10 08:09:54;;;;;;;;;;;6.10;99.90;;;;;;5026842;28;19913;-61
2023/03/10 08:12:20;;;;;;;;;;;6.10;99.90;;;;;;5029026;28;19924;-63
2023/03/10 08:14:46;;;;;;;;;;;6.20;99.90;;;;;;5026884;28;20427;-62
2023/03/10 08:17:12;;;;;;;;;;;6.30;99.90;;;;;;5029435;28;19913;-62
2023/03/10 08:19:38;;;;;;;;;;;6.20;99.90;;;;;;5026170;28;19913;-61
2023/03/10 08:22:04;;;;;;;;;;;6.20;99.90;;;;;;5025478;28;19913;-61
2023/03/10 08:24:29;;;;;;;;;;;6.20;99.90;;;;;;5026211;28;19968;-62
2023/03/10 08:26:55;;;;;;;;;;;6.30;99.90;;;;;;5023819;28;19917;-62
2023/03/10 08:29:21;;;;;;;;;;;6.20;99.90;;;;;;5031606;28;20325;-63
2023/03/10 08:31:46;;;;;;;;;;;6.30;99.90;;;;;;5030738;28;20000;-63
2023/03/10 08:34:12;;;;;;;;;;;6.30;99.90;;;;;;5033627;28;19963;-63
2023/03/10 08:36:38;;;;;;;;;;;6.30;99.90;;;;;;5030483;28;20331;-63
2023/03/10 08:39:04;;;;;;;;;;;6.20;99.90;;;;;;5032779;28;20383;-62
2023/03/10 08:41:37;;;;;;;;;;;6.20;99.90;;;;;;5029657;28;19920;-62
2023/03/10 08:44:02;;;;;;;;;;;6.20;99.90;;;;;;5025303;28;20364;-61
2023/03/10 08:46:29;;;;;;;;;;;6.30;99.90;;;;;;5033350;28;19913;-63
2023/03/10 08:48:55;;;;;;;;;;;6.10;99.90;;;;;;5031322;28;20357;-62
2023/03/10 08:51:20;;;;;;;;;;;6.10;99.90;;;;;;5032550;28;19913;-62
2023/03/10 08:53:46;;;;;;;;;;;6.10;99.90;;;;;;5030859;28;19913;-64
2023/03/10 08:56:13;;;;;;;;;;;6.20;99.90;;;;;;5032571;28;20010;-63
2023/03/10 08:58:38;;;;;;;;;;;6.10;99.90;;;;;;5030903;28;19913;-62
2023/03/10 09:01:04;;;;;;;;;;;6.00;99.90;;;;;;5032132;28;19914;-62
2023/03/10 09:03:29;;;;;;;;;;;5.80;99.90;;;;;;5030571;28;19996;-62
2023/03/10 09:05:55;;;;;;;;;;;5.80;99.90;;;;;;5030933;28;19943;-63
2023/03/10 09:08:21;;;;;;;;;;;5.90;99.90;;;;;;5032525;28;19913;-62
2023/03/10 09:10:46;;;;;;;;;;;5.60;99.90;;;;;;5029746;28;19920;-62
2023/03/10 09:13:12;;;;;;;;;;;5.60;99.90;;;;;;5032538;28;20310;-62
2023/03/10 09:15:40;;;;;;;;;;;5.50;99.90;;;;;;5030699;28;20007;-62
2023/03/10 09:18:10;;;;;;;;;;;5.50;99.90;;;;;;5031124;28;19979;-62
2023/03/10 09:20:36;;;;;;;;;;;5.50;99.90;;;;;;5030201;28;19921;-62
2023/03/10 09:23:02;;;;;;;;;;;5.40;99.90;;;;;;5032057;28;20415;-62
2023/03/10 09:25:28;;;;;;;;;;;5.40;99.90;;;;;;5032333;28;19921;-62
2023/03/10 09:27:53;;;;;;;;;;;5.40;99.90;;;;;;5029442;28;19971;-62
2023/03/10 09:30:19;;;;;;;;;;;5.50;99.90;;;;;;5032350;28;19913;-62
2023/03/10 09:32:44;;;;;;;;;;;5.20;99.90;;;;;;5028875;28;19913;-62
2023/03/10 09:35:10;;;;;;;;;;;5.20;99.90;;;;;;5029108;28;19917;-62
2023/03/10 09:37:36;;;;;;;;;;;5.40;99.90;;;;;;5030108;28;19919;-63
2023/03/10 09:40:04;;;;;;;;;;;5.20;99.90;;;;;;5031804;28;19913;-63
2023/03/10 09:42:43;;;;;;;;;;;5.20;99.90;;;;;;5024539;28;19999;-62
2023/03/10 09:45:18;;;;;;;;;;;5.40;99.90;;;;;;5030888;28;19925;-63
2023/03/10 09:47:48;;;;;;;;;;;5.10;99.90;;;;;;5029248;28;19921;-62
2023/03/10 09:50:17;;;;;;;;;;;5.10;99.90;;;;;;5031948;28;19924;-62
2023/03/10 09:52:42;;;;;;;;;;;5.10;99.90;;;;;;5030148;28;20317;-61
2023/03/10 09:55:11;;;;;;;;;;;5.20;99.90;;;;;;5032069;28;19913;-63
2023/03/10 09:57:37;;;;;;;;;;;5.20;99.90;;;;;;5024186;28;19967;-63
2023/03/10 10:00:07;;;;;;;;;;;5.10;99.90;;;;;;5027454;28;20008;-63
2023/03/10 10:02:41;;;;;;;;;;;5.20;99.90;;;;;;5028902;28;20329;-62
2023/03/10 10:05:14;;;;;;;;;;;5.00;99.90;;;;;;5031636;28;19921;-62
2023/03/10 10:07:41;;;;;;;;;;;5.00;99.90;;;;;;5020540;28;19967;-62
2023/03/10 10:10:27;;;;;;;;;;;4.90;99.90;;;;;;5028748;28;19959;-62
2023/03/10 10:12:53;;;;;;;;;;;5.00;99.90;;;;;;5024672;22;20585;-63
2023/03/10 10:15:23;;;;;;;;;;;5.20;99.90;;;;;;4998575;28;19936;-62
2023/03/10 10:17:58;;;;;;;;;;;5.30;99.90;;;;;;4987296;28;19917;-62
2023/03/10 10:20:38;;;;;;;;;;;5.20;99.90;;;;;;5003271;28;19914;-62
2023/03/10 10:23:10;;;;;;;;;;;5.20;99.90;;;;;;4991545;28;19918;-62
2023/03/10 10:25:36;;;;;;;;;;;5.10;99.90;;;;;;4990067;28;19925;-62
2023/03/10 10:28:03;;;;;;;;;;;4.90;99.90;;;;;;4990987;28;19921;-62
2023/03/10 10:30:29;;;;;;;;;;;4.80;99.90;;;;;;4994722;28;19952;-61
2023/03/10 10:32:59;;;;;;;;;;;4.90;99.90;;;;;;4999306;28;19937;-61
2023/03/10 10:35:26;;;;;;;;;;;4.80;99.90;;;;;;4993045;28;19921;-62
2023/03/10 10:38:00;;;;;;;;;;;4.80;99.90;;;;;;4997937;28;19914;-61
2023/03/10 10:40:28;;;;;;;;;;;5.10;99.90;;;;;;4991518;28;19922;-61
2023/03/10 10:42:54;;;;;;;;;;;5.10;99.90;;;;;;5001530;28;19917;-61
2023/03/10 10:45:36;;;;;;;;;;;5.20;99.90;;;;;;4993832;28;19922;-61
2023/03/10 10:48:02;;;;;;;;;;;5.10;99.90;;;;;;4988705;28;19914;-62
2023/03/10 10:50:32;;;;;;;;;;;5.10;99.90;;;;;;5004351;28;20028;-63
2023/03/10 10:53:16;;;;;;;;;;;5.30;99.90;;;;;;5002293;28;19925;-62
2023/03/10 10:55:43;;;;;;;;;;;5.50;99.90;;;;;;4998617;28;19920;-62
2023/03/10 10:58:27;;;;;;;;;;;5.80;99.90;;;;;;4993647;28;19913;-62
2023/03/10 11:00:55;;;;;;;;;;;6.00;99.90;;;;;;4995902;28;19928;-62
2023/03/10 11:03:29;;;;;;;;;;;6.00;99.90;;;;;;4995066;28;19921;-61
2023/03/10 11:05:56;;;;;;;;;;;6.10;99.90;;;;;;4994448;28;19922;-62
2023/03/10 11:08:31;;;;;;;;;;;6.10;99.90;;;;;;4999223;28;20012;-61
2023/03/10 11:11:05;;;;;;;;;;;6.00;99.90;;;;;;4992203;28;19913;-61
2023/03/10 11:13:35;;;;;;;;;;;6.20;99.90;;;;;;4989991;28;20408;-62
2023/03/10 11:16:24;;;;;;;;;;;6.20;99.90;;;;;;4990342;28;19949;-62
2023/03/10 11:19:04;;;;;;;;;;;6.20;99.90;;;;;;4987983;28;19917;-62
2023/03/10 11:21:33;;;;;;;;;;;6.30;99.90;;;;;;4992203;28;19936;-62
2023/03/10 11:23:58;;;;;;;;;;;6.50;99.90;;;;;;4988928;28;19944;-62
2023/03/10 11:26:36;;;;;;;;;;;6.50;99.90;;;;;;4997895;28;20373;-62
2023/03/10 11:29:06;;;;;;;;;;;6.60;99.90;;;;;;4987005;28;19966;-62
2023/03/10 11:31:31;;;;;;;;;;;6.70;99.90;;;;;;4990317;28;19929;-62
2023/03/10 11:34:06;;;;;;;;;;;6.60;99.90;;;;;;4998543;28;19917;-61
2023/03/10 11:36:31;;;;;;;;;;;7.00;99.90;;;;;;4990736;28;19914;-62
2023/03/10 11:39:18;;;;;;;;;;;7.40;99.90;;;;;;4993448;28;20024;-62
2023/03/10 11:41:47;;;;;;;;;;;7.50;99.90;;;;;;4975582;28;19914;-61
2023/03/10 11:44:27;;;;;;;;;;;7.60;99.90;;;;;;4992258;28;19913;-62
2023/03/10 11:47:06;;;;;;;;;;;7.40;99.90;;;;;;4988729;28;20320;-62
2023/03/10 11:49:35;;;;;;;;;;;7.20;99.90;;;;;;4998509;28;20026;-61
2023/03/10 11:52:04;;;;;;;;;;;7.10;99.90;;;;;;4994864;28;20063;-61
2023/03/10 11:54:38;;;;;;;;;;;7.00;99.90;;;;;;4991173;28;19914;-60
2023/03/10 11:57:11;;;;;;;;;;;6.70;99.90;;;;;;4991022;28;19925;-63
2023/03/10 11:59:41;;;;;;;;;;;6.60;99.90;;;;;;4988997;28;19918;-62
2023/03/10 12:02:13;;;;;;;;;;;6.40;99.90;;;;;;5001608;28;19914;-62
2023/03/10 12:04:42;;;;;;;;;;;6.40;99.90;;;;;;4991757;28;19929;-61
2023/03/10 12:07:28;;;;;;;;;;;6.20;99.90;;;;;;4986496;28;19921;-62
2023/03/10 12:09:58;;;;;;;;;;;6.10;99.90;;;;;;5004573;28;19917;-62
2023/03/10 12:12:31;;;;;;;;;;;6.20;99.90;;;;;;4988221;28;20428;-62
2023/03/10 12:14:58;;;;;;;;;;;6.30;99.90;;;;;;5003156;28;19914;-62
2023/03/10 12:17:24;;;;;;;;;;;6.40;99.90;;;;;;4991744;28;19921;-62
2023/03/10 12:20:14;;;;;;;;;;;6.40;99.90;;;;;;4993215;28;20308;-61
2023/03/10 12:22:50;;;;;;;;;;;6.20;99.90;;;;;;4988579;28;20450;-62
2023/03/10 12:25:28;;;;;;;;;;;6.20;99.90;;;;;;4994858;28;19928;-62
2023/03/10 12:28:12;;;;;;;;;;;6.10;99.90;;;;;;4986320;28;19918;-63
2023/03/10 12:30:47;;;;;;;;;;;6.10;99.90;;;;;;4988343;28;20303;-61
2023/03/10 12:33:36;;;;;;;;;;;6.00;99.90;;;;;;4993204;28;19960;-61
2023/03/10 12:36:22;;;;;;;;;;;5.90;99.90;;;;;;5001400;28;19924;-61
2023/03/10 12:39:05;;;;;;;;;;;5.90;99.90;;;;;;4990829;28;19924;-62
2023/03/10 12:41:43;;;;;;;;;;;5.90;99.90;;;;;;4987743;28;19920;-62
2023/03/10 12:44:27;;;;;;;;;;;5.90;99.90;;;;;;4986734;28;19965;-61
2023/03/10 12:47:18;;;;;;;;;;;5.90;99.90;;;;;;4987463;28;19976;-61
2023/03/10 12:49:50;;;;;;;;;;;5.90;99.90;;;;;;4987504;28;19914;-61
2023/03/10 12:52:21;;;;;;;;;;;5.80;99.90;;;;;;4988841;28;19914;-62
2023/03/10 12:55:01;;;;;;;;;;;5.80;99.90;;;;;;4987498;28;19961;-61
2023/03/10 12:57:35;;;;;;;;;;;5.90;99.90;;;;;;4992179;28;20025;-63
2023/03/10 13:00:09;;;;;;;;;;;6.00;99.90;;;;;;4987063;28;19913;-61
2023/03/10 13:02:41;;;;;;;;;;;6.50;99.90;;;;;;4985462;28;19921;-60
2023/03/10 13:05:15;;;;;;;;;;;6.80;99.90;;;;;;4989983;28;19926;-60
2023/03/10 13:07:44;;;;;;;;;;;6.80;99.90;;;;;;4986218;28;19940;-61
2023/03/10 13:10:15;;;;;;;;;;;6.70;99.90;;;;;;4988050;28;20000;-61
2023/03/10 13:12:46;;;;;;;;;;;6.80;99.90;;;;;;4986466;28;20068;-61
2023/03/10 13:15:23;;;;;;;;;;;6.80;99.90;;;;;;4990983;28;20369;-62
2023/03/10 13:17:49;;;;;;;;;;;6.80;99.90;;;;;;4989248;28;19921;-61
2023/03/10 13:20:16;;;;;;;;;;;6.90;99.90;;;;;;5003670;28;19913;-61
2023/03/10 13:22:55;;;;;;;;;;;6.80;99.90;;;;;;4991405;28;20299;-62
2023/03/10 13:25:21;;;;;;;;;;;6.70;99.90;;;;;;5006983;28;19977;-62
2023/03/10 13:27:46;;;;;;;;;;;6.70;99.90;;;;;;4990491;28;19918;-62
2023/03/10 13:30:14;;;;;;;;;;;6.90;99.90;;;;;;4993285;28;19958;-61
2023/03/10 13:32:40;;;;;;;;;;;6.90;99.90;;;;;;4981616;28;19961;-62
2023/03/10 13:35:24;;;;;;;;;;;7.10;99.90;;;;;;4989763;28;19914;-61
2023/03/10 13:38:28;;;;;;;;;;;7.20;99.90;;;;;;4990299;28;19921;-62
2023/03/10 13:40:56;;;;;;;;;;;7.30;99.90;;;;;;4955697;28;20276;-60
2023/03/10 13:43:30;;;;;;;;;;;7.50;99.90;;;;;;4957891;28;19914;-61
2023/03/10 13:45:57;;;;;;;;;;;7.40;99.90;;;;;;4953876;28;19938;-61
2023/03/10 13:48:24;;;;;;;;;;;7.60;99.90;;;;;;4953269;28;19921;-61
2023/03/10 13:51:08;;;;;;;;;;;7.80;99.90;;;;;;4952934;28;20060;-60
2023/03/10 13:53:34;;;;;;;;;;;7.60;99.90;;;;;;4961948;28;19914;-61
2023/03/10 13:56:07;;;;;;;;;;;7.50;99.90;;;;;;4956777;28;20069;-60
2023/03/10 13:58:33;;;;;;;;;;;7.20;99.90;;;;;;4958837;28;19941;-61
2023/03/10 14:00:59;;;;;;;;;;;8.20;99.90;;;;;;4957570;28;20009;-61
2023/03/10 14:03:25;;;;;;;;;;;8.00;99.90;;;;;;4964110;28;20353;-60
2023/03/10 14:05:51;;;;;;;;;;;7.50;99.90;;;;;;4948518;28;20362;-61
2023/03/10 14:08:22;;;;;;;;;;;7.00;99.90;;;;;;4944132;28;20021;-62
2023/03/10 14:10:47;;;;;;;;;;;6.60;99.90;;;;;;4959933;28;19921;-61
2023/03/10 14:13:32;;;;;;;;;;;6.30;99.90;;;;;;4991310;28;20315;-61
2023/03/10 14:15:57;;;;;;;;;;;6.20;99.90;;;;;;4987476;28;19914;-61
2023/03/10 14:18:26;;;;;;;;;;;6.30;99.90;;;;;;4990261;28;19921;-61
2023/03/10 14:20:52;;;;;;;;;;;6.30;99.90;;;;;;5006561;28;20281;-62
2023/03/10 14:23:17;;;;;;;;;;;6.40;99.90;;;;;;4992910;28;20016;-62
2023/03/10 14:25:47;;;;;;;;;;;6.30;99.90;;;;;;4989317;28;19922;-61
2023/03/10 14:28:16;;;;;;;;;;;6.50;99.90;;;;;;4991784;28;19921;-61
2023/03/10 14:30:42;;;;;;;;;;;6.60;99.90;;;;;;4990000;28;19914;-61
2023/03/10 14:33:12;;;;;;;;;;;6.30;99.90;;;;;;4994421;28;19914;-61
2023/03/10 14:35:38;;;;;;;;;;;6.40;99.90;;;;;;4990587;28;19914;-61
2023/03/10 14:38:04;;;;;;;;;;;6.60;99.90;;;;;;4991397;28;19921;-61
2023/03/10 14:40:31;;;;;;;;;;;6.80;99.90;;;;;;4992881;28;19961;-61
2023/03/10 14:42:58;;;;;;;;;;;6.90;99.90;;;;;;5004671;28;19921;-60